Time;durP1;ratioP1;P1;durP2;ratioP2;P2;SDS_P1;SDS_P2;PMS_P1;PMS_P2;Temp;Humidity;BMP_temperature;BMP_pressure;BME280_temperature;BME280_humidity;BME280_pressure;Samples;Min_cycle;Max_cycle;Signal;HPM_P1;HPM_P2
2021/01/25 00:01:08;;;;;;;4.20;1.77;;;332.90;1484.80;;;;;;5105420;28;20419;-61
2021/01/25 00:03:34;;;;;;;2.42;1.60;;;332.80;1510.40;;;;;;5102406;28;20020;-67
2021/01/25 00:06:00;;;;;;;2.70;1.40;;;332.90;1510.40;;;;;;5106492;28;20036;-69
2021/01/25 00:08:26;;;;;;;4.40;1.70;;;333.00;1484.80;;;;;;5108634;28;20053;-69
2021/01/25 00:10:53;;;;;;;4.45;1.50;;;332.90;1484.80;;;;;;5088020;28;20373;-68
2021/01/25 00:13:19;;;;;;;4.63;2.00;;;333.00;1484.80;;;;;;5072846;28;20479;-70
2021/01/25 00:15:48;;;;;;;2.63;1.65;;;333.00;1484.80;;;;;;5106880;28;20051;-67
2021/01/25 00:18:14;;;;;;;3.05;1.70;;;333.00;1484.80;;;;;;5104112;28;20031;-74
2021/01/25 00:20:39;;;;;;;1.92;1.50;;;333.00;1484.80;;;;;;5088806;28;20039;-69
2021/01/25 00:23:05;;;;;;;3.70;1.70;;;332.90;1510.40;;;;;;5102191;28;20020;-68
2021/01/25 00:25:31;;;;;;;3.40;1.40;;;333.00;1484.80;;;;;;5102218;28;20035;-62
2021/01/25 00:27:57;;;;;;;2.10;1.70;;;333.10;1484.80;;;;;;5102266;28;20049;-70
2021/01/25 00:30:22;;;;;;;2.20;1.70;;;333.10;1484.80;;;;;;5100754;28;20020;-69
2021/01/25 00:32:49;;;;;;;18.65;9.57;;;333.10;1459.20;;;;;;5089117;28;20115;-62
2021/01/25 00:35:15;;;;;;;17.42;11.15;;;308.00;1689.60;;;;;;5088237;28;20473;-67
2021/01/25 00:37:41;;;;;;;16.17;11.52;;;307.50;1792.00;;;;;;5092318;28;20035;-63
2021/01/25 00:40:07;;;;;;;15.38;11.10;;;282.30;1868.80;;;;;;5094514;28;20034;-61
2021/01/25 00:42:33;;;;;;;15.60;10.32;;;281.90;1920.00;;;;;;5090148;28;20028;-65
2021/01/25 00:45:00;;;;;;;11.85;9.52;;;256.80;1945.60;;;;;;5091106;28;20074;-65
2021/01/25 00:47:25;;;;;;;11.15;9.95;;;256.20;1971.20;;;;;;5099697;28;20040;-67
2021/01/25 00:49:51;;;;;;;9.90;8.48;;;231.20;2022.40;;;;;;5090114;28;20016;-61
2021/01/25 00:52:17;;;;;;;10.02;8.45;;;230.90;2048.00;;;;;;5085692;28;20027;-61
2021/01/25 00:54:43;;;;;;;7.50;6.47;;;230.70;2048.00;;;;;;5089596;28;20031;-68
2021/01/25 00:57:08;;;;;;;6.03;5.30;;;205.70;2048.00;;;;;;5089611;28;20052;-63
2021/01/25 00:59:34;;;;;;;4.45;3.20;;;205.40;2048.00;;;;;;5089451;28;20510;-60
2021/01/25 01:02:00;;;;;;;5.57;3.05;;;204.90;2048.00;;;;;;5090072;28;20069;-61
2021/01/25 01:04:26;;;;;;;3.70;2.80;;;179.70;2176.00;;;;;;5080472;28;20067;-60
2021/01/25 01:06:51;;;;;;;4.93;2.97;;;179.30;2252.80;;;;;;5090531;28;20060;-63
2021/01/25 01:09:17;;;;;;;3.63;3.10;;;154.40;2252.80;;;;;;5089623;28;20512;-62
2021/01/25 01:11:43;;;;;;;2.63;2.38;;;154.00;2252.80;;;;;;5089913;28;20024;-61
2021/01/25 01:14:09;;;;;;;2.67;2.45;;;153.70;2252.80;;;;;;5079665;28;20085;-67
2021/01/25 01:16:34;;;;;;;2.25;2.05;;;128.80;2252.80;;;;;;5090044;28;20474;-62
2021/01/25 01:19:00;;;;;;;1.95;1.60;;;128.70;2252.80;;;;;;5087984;28;20028;-66
2021/01/25 01:21:26;;;;;;;2.00;1.73;;;128.60;2252.80;;;;;;5094192;28;20461;-67
2021/01/25 01:23:52;;;;;;;2.63;1.65;;;128.40;2252.80;;;;;;5098036;28;20050;-55
2021/01/25 01:26:18;;;;;;;2.90;1.60;;;128.30;2252.80;;;;;;5105606;28;20035;-58
2021/01/25 01:28:44;;;;;;;2.50;1.13;;;128.10;2252.80;;;;;;5106031;28;20026;-59
2021/01/25 01:31:09;;;;;;;1.48;1.17;;;128.10;2252.80;;;;;;5103444;28;20434;-57
2021/01/25 01:33:35;;;;;;;1.42;0.90;;;128.00;2252.80;;;;;;5101657;28;20066;-58
2021/01/25 01:36:01;;;;;;;1.17;1.00;;;128.00;2252.80;;;;;;5106006;28;20126;-57
2021/01/25 01:38:26;;;;;;;2.05;0.77;;;103.30;2227.20;;;;;;5105713;28;20019;-58
2021/01/25 01:40:55;;;;;;;1.08;0.75;;;103.10;2227.20;;;;;;5106375;28;20081;-57
2021/01/25 01:43:21;;;;;;;1.15;0.60;;;102.80;2227.20;;;;;;5107610;28;20099;-57
2021/01/25 01:45:46;;;;;;;0.65;0.50;;;102.50;2227.20;;;;;;5105350;28;20118;-56
2021/01/25 01:48:13;;;;;;;0.43;0.40;;;77.40;2227.20;;;;;;5103606;28;20019;-56
2021/01/25 01:50:39;;;;;;;1.20;0.38;;;77.30;2227.20;;;;;;5102095;28;20016;-55
2021/01/25 01:53:04;;;;;;;1.95;0.55;;;77.30;2227.20;;;;;;5091881;28;20027;-57
2021/01/25 01:55:30;;;;;;;0.63;0.40;;;77.30;2227.20;;;;;;5091635;28;20044;-57
2021/01/25 01:57:56;;;;;;;0.70;0.35;;;77.20;2227.20;;;;;;5091557;28;20043;-58
2021/01/25 02:00:23;;;;;;;0.60;0.32;;;77.10;2227.20;;;;;;5091615;28;20061;-57
2021/01/25 02:02:49;;;;;;;0.82;0.55;;;77.10;2227.20;;;;;;5091303;28;20044;-56
2021/01/25 02:05:16;;;;;;;0.32;0.32;;;77.00;2227.20;;;;;;5091672;28;20063;-56
2021/01/25 02:07:49;;;;;;;0.50;0.32;;;76.80;2227.20;;;;;;5090936;28;20020;-56
2021/01/25 02:10:18;;;;;;;0.43;0.30;;;76.90;2227.20;;;;;;5095980;28;20020;-57
2021/01/25 02:12:46;;;;;;;1.80;0.95;;;76.80;2227.20;;;;;;5090936;28;20052;-57
2021/01/25 02:15:12;;;;;;;0.67;0.30;;;76.80;2227.20;;;;;;5075865;28;20043;-56
2021/01/25 02:17:38;;;;;;;0.30;0.30;;;52.10;2227.20;;;;;;5089469;28;20028;-56
2021/01/25 02:20:11;;;;;;;1.05;0.50;;;52.00;2227.20;;;;;;5075055;28;20096;-57
2021/01/25 02:22:37;;;;;;;0.82;0.68;;;52.10;2227.20;;;;;;5075233;28;20044;-56
2021/01/25 02:25:20;;;;;;;1.00;0.50;;;52.10;2227.20;;;;;;5086718;28;20063;-56
2021/01/25 02:27:47;;;;;;;1.05;0.85;;;76.80;2227.20;;;;;;5074840;28;20028;-56
2021/01/25 02:30:17;;;;;;;1.15;0.90;;;76.80;2227.20;;;;;;5074800;28;20020;-56
2021/01/25 02:32:45;;;;;;;1.50;1.10;;;76.80;2227.20;;;;;;5074601;28;20020;-56
2021/01/25 02:35:15;;;;;;;1.15;0.75;;;52.10;2227.20;;;;;;5075210;28;20056;-56
2021/01/25 02:37:41;;;;;;;1.27;1.10;;;52.00;2227.20;;;;;;5088829;28;20020;-56
2021/01/25 02:40:10;;;;;;;1.58;1.00;;;52.10;2227.20;;;;;;5084771;28;20058;-56
2021/01/25 02:42:37;;;;;;;2.40;1.70;;;52.10;2227.20;;;;;;5092757;28;20028;-56
2021/01/25 02:45:04;;;;;;;1.63;1.20;;;52.10;2227.20;;;;;;5092358;28;20607;-56
2021/01/25 02:47:32;;;;;;;1.70;1.60;;;51.90;2227.20;;;;;;5090925;28;20498;-56
2021/01/25 02:49:57;;;;;;;2.00;1.33;;;51.90;2227.20;;;;;;5096271;28;20012;-57
2021/01/25 02:52:23;;;;;;;1.50;1.40;;;51.80;2227.20;;;;;;5098444;28;20031;-56
2021/01/25 02:54:49;;;;;;;2.08;1.70;;;51.80;2227.20;;;;;;5096449;28;20042;-62
2021/01/25 02:57:17;;;;;;;1.95;1.35;;;51.70;2227.20;;;;;;5077709;28;20522;-57
2021/01/25 02:59:43;;;;;;;1.35;1.25;;;51.70;2227.20;;;;;;5079249;28;20520;-74
2021/01/25 03:02:11;;;;;;;1.40;0.95;;;51.70;2227.20;;;;;;5094393;28;20032;-56
2021/01/25 03:04:38;;;;;;;1.10;0.90;;;51.70;2227.20;;;;;;5094527;28;20028;-56
2021/01/25 03:07:04;;;;;;;1.83;1.02;;;51.70;2227.20;;;;;;5090652;28;20052;-56
2021/01/25 03:09:31;;;;;;;2.10;1.40;;;51.70;2227.20;;;;;;5074260;28;20028;-56
2021/01/25 03:11:57;;;;;;;1.58;1.48;;;51.80;2227.20;;;;;;5073940;28;20031;-56
2021/01/25 03:14:23;;;;;;;3.33;1.30;;;51.80;2227.20;;;;;;5082770;28;20482;-57
2021/01/25 03:16:49;;;;;;;1.60;1.25;;;51.70;2227.20;;;;;;5079562;28;20036;-56
2021/01/25 03:19:15;;;;;;;1.77;1.25;;;51.70;2227.20;;;;;;5088026;28;20424;-56
2021/01/25 03:21:48;;;;;;;2.20;1.45;;;51.90;2227.20;;;;;;5073655;28;20032;-56
2021/01/25 03:24:13;;;;;;;1.88;1.35;;;52.00;2227.20;;;;;;5073905;28;20366;-57
2021/01/25 03:26:40;;;;;;;1.42;1.33;;;52.10;2227.20;;;;;;5073658;28;20041;-56
2021/01/25 03:29:06;;;;;;;1.38;1.20;;;52.10;2227.20;;;;;;5073318;28;20043;-55
2021/01/25 03:31:32;;;;;;;1.42;1.33;;;52.00;2227.20;;;;;;5074134;28;20035;-56
2021/01/25 03:33:57;;;;;;;1.48;1.30;;;52.10;2227.20;;;;;;5073443;28;20474;-56
2021/01/25 03:36:23;;;;;;;2.25;1.60;;;52.10;2227.20;;;;;;5093747;28;20024;-56
2021/01/25 03:38:49;;;;;;;1.48;1.30;;;52.00;2227.20;;;;;;5089844;28;20058;-56
2021/01/25 03:41:14;;;;;;;1.83;1.15;;;51.90;2227.20;;;;;;5082056;28;20489;-55
2021/01/25 03:43:40;;;;;;;1.23;1.02;;;51.90;2227.20;;;;;;5083872;28;20158;-56
2021/01/25 03:46:06;;;;;;;1.90;1.23;;;51.90;2227.20;;;;;;5076718;28;20101;-56
2021/01/25 03:48:31;;;;;;;2.22;1.20;;;51.80;2227.20;;;;;;5073185;28;20021;-56
2021/01/25 03:50:57;;;;;;;1.52;1.10;;;51.90;2227.20;;;;;;5073544;28;20086;-55
2021/01/25 03:53:23;;;;;;;1.20;1.00;;;51.80;2227.20;;;;;;5087345;28;20027;-57
2021/01/25 03:55:48;;;;;;;1.83;1.15;;;51.90;2227.20;;;;;;5073534;28;20025;-57
2021/01/25 03:58:14;;;;;;;1.02;0.85;;;51.80;2227.20;;;;;;5072634;28;20025;-56
2021/01/25 04:00:40;;;;;;;1.60;1.10;;;51.90;2227.20;;;;;;5073256;28;20074;-55
2021/01/25 04:03:05;;;;;;;1.80;1.45;;;51.90;2227.20;;;;;;5087242;28;20056;-56
2021/01/25 04:05:31;;;;;;;2.45;1.40;;;52.00;2227.20;;;;;;5073055;28;20027;-56
2021/01/25 04:07:57;;;;;;;1.60;1.20;;;52.10;2227.20;;;;;;5087261;28;20032;-57
2021/01/25 04:10:22;;;;;;;1.23;1.13;;;52.00;2227.20;;;;;;5086979;28;20027;-56
2021/01/25 04:12:48;;;;;;;1.33;1.00;;;52.10;2227.20;;;;;;5072910;28;20106;-56
2021/01/25 04:15:14;;;;;;;2.00;1.20;;;52.00;2227.20;;;;;;5072611;28;20017;-62
2021/01/25 04:17:40;;;;;;;2.33;1.65;;;52.00;2227.20;;;;;;5082753;28;20044;-55
2021/01/25 04:20:06;;;;;;;1.30;1.20;;;52.00;2227.20;;;;;;5076874;28;20029;-56
2021/01/25 04:22:33;;;;;;;2.17;1.65;;;52.00;2227.20;;;;;;5072902;28;20040;-56
2021/01/25 04:24:58;;;;;;;3.20;1.50;;;52.00;2227.20;;;;;;5072748;28;20032;-57
2021/01/25 04:27:24;;;;;;;1.67;1.58;;;52.10;2227.20;;;;;;5086624;28;20036;-56
2021/01/25 04:29:50;;;;;;;2.20;1.50;;;51.90;2227.20;;;;;;5084913;28;20043;-56
2021/01/25 04:32:15;;;;;;;1.10;1.00;;;51.80;2227.20;;;;;;5073252;28;20024;-57
2021/01/25 04:34:42;;;;;;;2.20;1.40;;;51.80;2227.20;;;;;;5072874;28;20027;-57
2021/01/25 04:37:08;;;;;;;1.90;1.60;;;51.80;2227.20;;;;;;5072348;28;20659;-57
2021/01/25 04:39:33;;;;;;;3.55;1.60;;;51.70;2227.20;;;;;;5072629;28;20078;-57
2021/01/25 04:41:59;;;;;;;1.67;1.58;;;51.70;2227.20;;;;;;5072137;28;20024;-53
2021/01/25 04:44:26;;;;;;;5.38;2.03;;;51.80;2227.20;;;;;;5092336;28;20040;-57
2021/01/25 04:46:55;;;;;;;2.63;1.40;;;51.70;2227.20;;;;;;5081066;28;20059;-56
2021/01/25 04:49:21;;;;;;;2.45;1.48;;;51.70;2227.20;;;;;;5072438;28;20020;-56
2021/01/25 04:51:48;;;;;;;1.60;1.33;;;51.80;2227.20;;;;;;5073527;28;20054;-57
2021/01/25 04:54:14;;;;;;;2.33;1.30;;;51.70;2227.20;;;;;;5072936;28;20062;-56
2021/01/25 04:56:41;;;;;;;2.08;1.75;;;51.70;2227.20;;;;;;5072542;28;20395;-57
2021/01/25 04:59:07;;;;;;;1.77;1.42;;;51.80;2227.20;;;;;;5072034;28;20028;-56
2021/01/25 05:01:33;;;;;;;1.48;1.25;;;51.90;2227.20;;;;;;5072429;28;20477;-56
2021/01/25 05:03:58;;;;;;;1.83;1.35;;;52.00;2227.20;;;;;;5084110;28;20020;-56
2021/01/25 05:06:24;;;;;;;1.73;1.40;;;52.10;2227.20;;;;;;5092437;28;20035;-56
2021/01/25 05:08:50;;;;;;;1.88;1.67;;;52.10;2227.20;;;;;;5092273;28;20035;-57
2021/01/25 05:11:17;;;;;;;3.58;1.70;;;51.90;2227.20;;;;;;5076190;28;20390;-58
2021/01/25 05:13:43;;;;;;;1.80;1.52;;;52.00;2227.20;;;;;;5071867;28;20021;-56
2021/01/25 05:16:22;;;;;;;1.90;1.58;;;52.10;2227.20;;;;;;5072256;28;20032;-56
2021/01/25 05:18:55;;;;;;;1.75;1.50;;;76.80;2227.20;;;;;;5080205;28;20081;-56
2021/01/25 05:21:45;;;;;;;2.10;1.60;;;52.00;2227.20;;;;;;5076750;28;20048;-57
2021/01/25 05:24:12;;;;;;;1.98;1.80;;;52.10;2227.20;;;;;;5082259;28;20138;-56
2021/01/25 05:26:50;;;;;;;3.03;2.17;;;76.80;2227.20;;;;;;5075663;28;20126;-56
2021/01/25 05:29:23;;;;;;;3.35;2.33;;;76.90;2227.20;;;;;;5071891;28;20021;-57
2021/01/25 05:31:53;;;;;;;2.20;2.00;;;76.90;2227.20;;;;;;5072024;28;20115;-57
2021/01/25 05:34:19;;;;;;;2.10;1.88;;;76.80;2227.20;;;;;;5071601;28;20033;-59
2021/01/25 05:36:45;;;;;;;2.55;2.20;;;76.80;2227.20;;;;;;5071937;28;20066;-56
2021/01/25 05:39:17;;;;;;;2.17;1.92;;;76.80;2227.20;;;;;;5085249;28;20024;-56
2021/01/25 05:41:56;;;;;;;2.63;2.42;;;76.80;2227.20;;;;;;5095499;28;20016;-57
2021/01/25 05:44:22;;;;;;;2.50;1.80;;;76.90;2227.20;;;;;;5094848;28;20517;-56
2021/01/25 05:46:48;;;;;;;3.42;2.85;;;52.10;2227.20;;;;;;5103232;28;20050;-56
2021/01/25 05:49:24;;;;;;;2.70;1.88;;;52.10;2227.20;;;;;;5095796;28;20390;-56
2021/01/25 05:51:53;;;;;;;2.55;1.90;;;52.10;2227.20;;;;;;5096383;28;20051;-55
2021/01/25 05:54:20;;;;;;;3.30;2.72;;;76.80;2227.20;;;;;;5110194;28;20031;-57
2021/01/25 05:56:45;;;;;;;3.10;2.28;;;76.80;2227.20;;;;;;5102932;28;20020;-56
2021/01/25 05:59:11;;;;;;;3.72;2.72;;;76.80;2227.20;;;;;;5116635;28;20024;-56
2021/01/25 06:01:38;;;;;;;2.83;2.15;;;76.90;2227.20;;;;;;5116471;28;20084;-56
2021/01/25 06:04:06;;;;;;;3.10;1.92;;;76.90;2227.20;;;;;;5115717;28;20020;-54
2021/01/25 06:06:35;;;;;;;2.83;2.05;;;76.80;2227.20;;;;;;5116235;28;20073;-56
2021/01/25 06:09:22;;;;;;;;;;;76.80;2227.20;;;;;;5116576;28;20023;-57
2021/01/25 06:11:48;;;;;;;2.72;2.28;;;76.90;2227.20;;;;;;5113353;28;19918;-56
2021/01/25 06:14:33;;;;;;;4.25;2.70;;;76.90;2227.20;;;;;;5085787;28;20027;-57
2021/01/25 06:16:59;;;;;;;3.60;2.95;;;76.80;2227.20;;;;;;5098618;28;20032;-58
2021/01/25 06:19:28;;;;;;;3.95;2.72;;;77.00;2227.20;;;;;;5105378;28;20083;-61
2021/01/25 06:21:54;;;;;;;;;;;77.10;2227.20;;;;;;5121546;28;20361;-57
2021/01/25 06:24:22;;;;;;;2.70;2.50;;;77.00;2227.20;;;;;;5121488;28;19916;-56
2021/01/25 06:26:49;;;;;;;8.60;6.60;;;77.00;2227.20;;;;;;5120611;28;20091;-55
2021/01/25 06:29:20;;;;;;;8.35;6.13;;;77.00;2227.20;;;;;;5114422;28;20027;-62
2021/01/25 06:31:55;;;;;;;5.88;4.00;;;77.10;2227.20;;;;;;5110682;28;20062;-56
2021/01/25 06:34:21;;;;;;;6.85;4.35;;;77.10;2227.20;;;;;;5116148;28;20019;-57
2021/01/25 06:36:51;;;;;;;4.90;3.83;;;77.20;2227.20;;;;;;5116602;28;20028;-57
2021/01/25 06:39:28;;;;;;;3.85;3.03;;;77.30;2227.20;;;;;;5115936;28;20458;-56
2021/01/25 06:42:04;;;;;;;6.07;4.38;;;77.30;2227.20;;;;;;5115863;28;20023;-55
2021/01/25 06:44:32;;;;;;;6.07;3.83;;;77.30;2227.20;;;;;;5097922;28;20059;-57
2021/01/25 06:46:59;;;;;;;7.53;5.35;;;77.10;2227.20;;;;;;5095219;28;20119;-57
2021/01/25 06:49:26;;;;;;;7.20;3.97;;;77.30;2227.20;;;;;;5094700;28;20028;-57
2021/01/25 06:51:54;;;;;;;6.70;5.18;;;77.30;2227.20;;;;;;5095154;28;20012;-56
2021/01/25 06:54:24;;;;;;;9.52;6.38;;;77.40;2227.20;;;;;;5094190;28;20032;-56
2021/01/25 06:56:55;;;;;;;8.95;5.47;;;77.50;2227.20;;;;;;5073899;28;20032;-57
2021/01/25 06:59:25;;;;;;;10.57;7.07;;;77.60;2227.20;;;;;;5074344;28;20029;-56
2021/01/25 07:01:52;;;;;;;9.13;6.03;;;77.60;2227.20;;;;;;5103394;28;20459;-57
2021/01/25 07:04:21;;;;;;;8.63;5.70;;;77.70;2227.20;;;;;;5094144;28;20374;-57
2021/01/25 07:06:54;;;;;;;7.30;5.15;;;77.70;2227.20;;;;;;5094266;28;20047;-57
2021/01/25 07:09:28;;;;;;;6.32;5.53;;;102.40;2227.20;;;;;;5093566;28;20489;-57
2021/01/25 07:11:58;;;;;;;10.13;7.25;;;102.40;2227.20;;;;;;5093628;28;20020;-58
2021/01/25 07:14:26;;;;;;;5.85;5.00;;;102.40;2227.20;;;;;;5075964;28;20107;-56
2021/01/25 07:16:53;;;;;;;7.95;6.68;;;102.50;2227.20;;;;;;5094370;28;20024;-57
2021/01/25 07:19:20;;;;;;;10.07;6.97;;;102.50;2227.20;;;;;;5075771;28;20033;-57
2021/01/25 07:21:48;;;;;;;7.70;5.55;;;102.60;2227.20;;;;;;5094442;28;20024;-57
2021/01/25 07:24:27;;;;;;;7.78;5.45;;;102.70;2227.20;;;;;;5087358;28;20097;-58
2021/01/25 07:26:54;;;;;;;8.82;5.18;;;102.70;2227.20;;;;;;5104193;28;20034;-57
2021/01/25 07:29:20;;;;;;;8.80;5.93;;;102.80;2227.20;;;;;;5095222;28;20047;-56
2021/01/25 07:31:47;;;;;;;8.25;5.65;;;102.80;2227.20;;;;;;5094776;28;20437;-57
2021/01/25 07:34:13;;;;;;;7.40;4.40;;;102.90;2227.20;;;;;;5093511;28;20035;-56
2021/01/25 07:36:40;;;;;;;7.43;5.80;;;102.90;2227.20;;;;;;5093875;28;20020;-56
2021/01/25 07:39:09;;;;;;;5.97;5.38;;;103.00;2227.20;;;;;;5093735;28;20028;-57
2021/01/25 07:41:39;;;;;;;7.32;5.70;;;103.20;2227.20;;;;;;5093954;28;20399;-56
2021/01/25 07:44:06;;;;;;;7.85;6.40;;;103.00;2227.20;;;;;;5093275;28;20048;-56
2021/01/25 07:46:33;;;;;;;9.07;6.20;;;103.00;2201.60;;;;;;5093707;28;20028;-57
2021/01/25 07:48:58;;;;;;;9.68;6.13;;;103.00;2201.60;;;;;;5093016;28;20103;-58
2021/01/25 07:51:30;;;;;;;7.55;5.25;;;103.10;2201.60;;;;;;5093939;28;20095;-57
2021/01/25 07:53:56;;;;;;;8.57;5.50;;;103.10;2176.00;;;;;;5088729;28;20035;-62
2021/01/25 07:56:24;;;;;;;10.60;6.55;;;103.00;2176.00;;;;;;5094117;28;20020;-69
2021/01/25 07:59:01;;;;;;;11.10;6.40;;;103.00;2201.60;;;;;;5093019;28;20056;-56
2021/01/25 08:01:29;;;;;;;9.57;5.47;;;102.80;2201.60;;;;;;5091613;28;20111;-57
2021/01/25 08:04:02;;;;;;;9.68;5.35;;;102.70;2227.20;;;;;;5092932;28;20012;-57
2021/01/25 08:06:35;;;;;;;7.20;5.40;;;102.70;2227.20;;;;;;5092935;28;20474;-57
2021/01/25 08:09:05;;;;;;;8.52;5.70;;;102.70;2227.20;;;;;;5099215;28;20447;-55
2021/01/25 08:11:32;;;;;;;10.90;6.85;;;102.80;2201.60;;;;;;5103301;28;20028;-56
2021/01/25 08:14:03;;;;;;;6.88;5.18;;;102.90;2227.20;;;;;;5093181;28;20493;-56
2021/01/25 08:16:35;;;;;;;7.72;5.95;;;103.00;2176.00;;;;;;5093019;28;20032;-55
2021/01/25 08:19:35;;;;;;;7.85;5.57;;;103.10;2176.00;;;;;;5092660;28;20036;-55
2021/01/25 08:22:03;;;;;;;7.60;4.50;;;103.20;2150.40;;;;;;5092867;28;20111;-55
2021/01/25 08:24:30;;;;;;;5.82;4.40;;;128.00;2150.40;;;;;;5093049;28;20478;-56
2021/01/25 08:27:14;;;;;;;7.13;5.85;;;128.00;2124.80;;;;;;5092643;28;20032;-56
2021/01/25 08:29:41;;;;;;;7.82;5.22;;;128.10;2099.20;;;;;;5085057;28;20055;-57
2021/01/25 08:32:27;;;;;;;8.30;5.95;;;128.00;2099.20;;;;;;5092704;28;20025;-56
2021/01/25 08:35:03;;;;;;;7.93;4.40;;;128.30;2073.60;;;;;;5086016;28;20031;-56
2021/01/25 08:37:32;;;;;;;6.32;4.55;;;128.60;2022.40;;;;;;5088455;28;20036;-56
2021/01/25 08:40:09;;;;;;;7.18;5.10;;;128.90;1996.80;;;;;;5092004;28;20386;-56
2021/01/25 08:42:35;;;;;;;7.35;4.20;;;153.60;1971.20;;;;;;5096034;28;20020;-57
2021/01/25 08:45:21;;;;;;;8.35;5.70;;;153.70;1920.00;;;;;;5092814;28;20140;-57
2021/01/25 08:47:47;;;;;;;9.75;6.85;;;153.70;1894.40;;;;;;5091727;28;20383;-57
2021/01/25 08:50:26;;;;;;;16.33;14.18;;;153.70;1894.40;;;;;;5092344;28;20429;-57
2021/01/25 08:53:27;;;;;;;12.88;10.88;;;128.90;1920.00;;;;;;5092574;28;20042;-57
2021/01/25 08:55:57;;;;;;;10.98;6.57;;;128.90;1920.00;;;;;;5083210;28;20047;-56
2021/01/25 08:58:30;;;;;;;8.15;5.57;;;128.90;1894.40;;;;;;5091870;28;21247;-56
2021/01/25 09:00:57;;;;;;;8.48;6.88;;;128.80;1894.40;;;;;;5092833;28;20012;-57
2021/01/25 09:03:24;;;;;;;9.55;6.53;;;128.80;1894.40;;;;;;5092157;28;20020;-58
2021/01/25 09:05:54;;;;;;;9.05;5.53;;;128.90;1868.80;;;;;;5092526;28;20054;-56
2021/01/25 09:08:21;;;;;;;9.23;5.78;;;128.90;1843.20;;;;;;5092913;28;20379;-59
2021/01/25 09:10:47;;;;;;;7.35;4.78;;;153.60;1868.80;;;;;;5113390;28;20054;-59
2021/01/25 09:13:13;;;;;;;7.63;3.47;;;153.70;1843.20;;;;;;5100358;28;20132;-58
2021/01/25 09:15:39;;;;;;;6.20;4.10;;;153.60;1792.00;;;;;;5092659;28;20024;-61
2021/01/25 09:18:07;;;;;;;7.45;4.22;;;153.60;1843.20;;;;;;5092712;28;20412;-58
2021/01/25 09:20:33;;;;;;;6.63;4.63;;;128.90;1843.20;;;;;;5092099;28;20032;-57
2021/01/25 09:22:59;;;;;;;6.40;4.20;;;153.70;1817.60;;;;;;5093205;28;20024;-60
2021/01/25 09:25:25;;;;;;;7.70;4.00;;;153.70;1792.00;;;;;;5092971;28;20027;-57
2021/01/25 09:27:51;;;;;;;6.93;3.92;;;153.60;1817.60;;;;;;5112559;28;20064;-57
2021/01/25 09:30:18;;;;;;;5.47;3.47;;;153.60;1792.00;;;;;;5099044;28;20024;-57
2021/01/25 09:32:44;;;;;;;9.75;6.70;;;153.70;1817.60;;;;;;5097481;28;20027;-57
2021/01/25 09:35:13;;;;;;;6.38;4.57;;;153.70;1817.60;;;;;;5101216;28;20024;-57
2021/01/25 09:37:39;;;;;;;7.45;4.38;;;153.80;1817.60;;;;;;5095598;28;20024;-57
2021/01/25 09:40:06;;;;;;;9.10;6.43;;;154.00;1792.00;;;;;;5112583;28;20027;-58
2021/01/25 09:42:32;;;;;;;5.10;3.05;;;154.00;1766.40;;;;;;5110860;28;20070;-59
2021/01/25 09:44:58;;;;;;;5.63;3.55;;;153.90;1715.20;;;;;;5112370;28;20389;-57
2021/01/25 09:47:24;;;;;;;5.53;3.13;;;154.00;1689.60;;;;;;5098811;28;20036;-57
2021/01/25 09:49:50;;;;;;;6.80;3.35;;;154.10;1689.60;;;;;;5092065;28;20024;-57
2021/01/25 09:52:15;;;;;;;5.70;3.35;;;154.20;1689.60;;;;;;5091657;28;20027;-57
2021/01/25 09:54:42;;;;;;;7.53;3.13;;;154.20;1664.00;;;;;;5094792;28;20028;-56
2021/01/25 09:57:08;;;;;;;5.15;2.90;;;154.30;1664.00;;;;;;5112718;28;20020;-57
2021/01/25 09:59:34;;;;;;;5.72;3.30;;;154.30;1638.40;;;;;;5112217;28;20585;-58
2021/01/25 10:01:59;;;;;;;6.80;3.50;;;154.40;1638.40;;;;;;5112126;28;20028;-56
2021/01/25 10:04:25;;;;;;;3.95;2.63;;;154.40;1612.80;;;;;;5112350;28;20028;-58
2021/01/25 10:06:51;;;;;;;4.72;2.70;;;154.30;1587.20;;;;;;5097847;28;20032;-58
2021/01/25 10:09:17;;;;;;;5.85;3.33;;;154.30;1612.80;;;;;;5113649;28;20019;-62
2021/01/25 10:11:43;;;;;;;5.95;2.72;;;154.20;1587.20;;;;;;5098825;28;20466;-56
2021/01/25 10:14:08;;;;;;;5.97;3.10;;;154.40;1587.20;;;;;;5111983;28;20063;-57
2021/01/25 10:16:34;;;;;;;5.80;2.75;;;154.50;1612.80;;;;;;5111405;28;20466;-58
2021/01/25 10:19:00;;;;;;;5.72;2.47;;;154.50;1536.00;;;;;;5092381;28;20032;-59
2021/01/25 10:21:26;;;;;;;4.30;2.47;;;154.50;1561.60;;;;;;5105822;28;20024;-58
2021/01/25 10:23:51;;;;;;;6.15;2.33;;;179.20;1536.00;;;;;;5111945;28;20504;-58
2021/01/25 10:26:20;;;;;;;3.78;2.67;;;179.20;1561.60;;;;;;5112942;28;20032;-57
2021/01/25 10:28:46;;;;;;;2.92;1.77;;;179.20;1561.60;;;;;;5112404;28;20020;-59
2021/01/25 10:31:12;;;;;;;4.50;2.83;;;154.40;1561.60;;;;;;5115826;28;20411;-57
2021/01/25 10:33:38;;;;;;;3.03;2.20;;;154.40;1561.60;;;;;;5116028;28;20355;-57
2021/01/25 10:36:04;;;;;;;4.25;2.28;;;154.30;1561.60;;;;;;5096702;28;20138;-57
2021/01/25 10:38:30;;;;;;;4.15;2.60;;;154.50;1561.60;;;;;;5115876;28;20031;-56
2021/01/25 10:40:55;;;;;;;3.50;2.47;;;179.40;1536.00;;;;;;5115411;28;20106;-57
2021/01/25 10:43:21;;;;;;;6.18;3.10;;;179.60;1536.00;;;;;;5115013;28;20036;-58
2021/01/25 10:45:47;;;;;;;4.47;2.75;;;179.60;1536.00;;;;;;5115109;28;20046;-58
2021/01/25 10:48:13;;;;;;;7.05;3.25;;;179.70;1510.40;;;;;;5095387;28;20032;-57
2021/01/25 10:50:38;;;;;;;5.55;3.80;;;179.60;1510.40;;;;;;5094689;28;20047;-57
2021/01/25 10:53:04;;;;;;;4.32;2.60;;;179.60;1536.00;;;;;;5094833;28;20496;-56
2021/01/25 10:55:30;;;;;;;4.18;2.35;;;179.70;1510.40;;;;;;5094741;28;20028;-57
2021/01/25 10:57:58;;;;;;;4.18;2.97;;;179.70;1510.40;;;;;;5112221;28;20020;-58
2021/01/25 11:00:24;;;;;;;9.17;3.80;;;179.80;1484.80;;;;;;5114022;28;20020;-58
2021/01/25 11:02:50;;;;;;;9.43;3.42;;;180.00;1484.80;;;;;;5113076;28;20045;-58
2021/01/25 11:05:20;;;;;;;7.50;3.45;;;180.00;1433.60;;;;;;5108966;28;20106;-58
2021/01/25 11:07:47;;;;;;;5.90;3.55;;;179.90;1484.80;;;;;;5091811;28;20039;-58
2021/01/25 11:10:19;;;;;;;8.80;3.45;;;180.10;1459.20;;;;;;5111041;28;20030;-58
2021/01/25 11:12:45;;;;;;;5.53;3.42;;;180.10;1459.20;;;;;;5110130;28;20367;-59
2021/01/25 11:15:12;;;;;;;6.45;3.95;;;180.10;1484.80;;;;;;5109178;28;20020;-59
2021/01/25 11:17:37;;;;;;;5.13;3.63;;;204.80;1459.20;;;;;;5111642;28;20723;-58
2021/01/25 11:20:06;;;;;;;6.95;3.83;;;204.90;1433.60;;;;;;5111091;28;20027;-58
2021/01/25 11:22:32;;;;;;;9.32;4.63;;;205.00;1408.00;;;;;;5112303;28;20027;-58
2021/01/25 11:24:58;;;;;;;5.70;5.13;;;205.10;1433.60;;;;;;5112691;28;20492;-57
2021/01/25 11:27:23;;;;;;;12.95;8.93;;;205.20;1408.00;;;;;;5087124;28;20074;-58
2021/01/25 11:29:49;;;;;;;7.25;6.55;;;205.40;1408.00;;;;;;5111182;28;20026;-57
2021/01/25 11:32:15;;;;;;;9.70;5.40;;;205.60;1382.40;;;;;;5108995;28;20052;-57
2021/01/25 11:34:41;;;;;;;10.02;4.15;;;230.50;1356.80;;;;;;5110643;28;20065;-58
2021/01/25 11:37:06;;;;;;;7.53;4.35;;;230.60;1305.60;;;;;;5097895;28;20031;-57
2021/01/25 11:39:32;;;;;;;5.78;3.63;;;230.80;1305.60;;;;;;5092424;28;20032;-58
2021/01/25 11:41:59;;;;;;;4.57;3.20;;;231.00;1254.40;;;;;;5093212;28;20025;-55
2021/01/25 11:44:26;;;;;;;6.00;4.10;;;231.10;1254.40;;;;;;5101026;28;20140;-59
2021/01/25 11:46:52;;;;;;;4.75;3.20;;;231.20;1228.80;;;;;;5111889;28;20032;-59
2021/01/25 11:49:18;;;;;;;5.75;3.95;;;256.10;1203.20;;;;;;5111781;28;20030;-59
2021/01/25 11:51:45;;;;;;;5.38;3.80;;;256.20;1177.60;;;;;;5094913;28;20052;-59
2021/01/25 11:54:10;;;;;;;6.05;3.60;;;256.30;1152.00;;;;;;5071971;28;20021;-59
2021/01/25 11:56:38;;;;;;;5.47;3.15;;;256.30;1152.00;;;;;;5092747;28;20074;-58
2021/01/25 11:59:04;;;;;;;7.97;5.55;;;256.30;1356.80;;;;;;5113780;28;20047;-58
2021/01/25 12:01:29;;;;;;;4.15;3.22;;;256.10;1177.60;;;;;;5112579;28;20426;-58
2021/01/25 12:03:55;;;;;;;6.05;3.65;;;256.00;1177.60;;;;;;5093480;28;20020;-56
2021/01/25 12:06:21;;;;;;;5.65;2.63;;;256.10;1177.60;;;;;;5093279;28;20039;-58
2021/01/25 12:08:47;;;;;;;4.97;2.28;;;256.00;1152.00;;;;;;5093374;28;20348;-63
2021/01/25 12:11:13;;;;;;;7.32;3.22;;;231.30;1152.00;;;;;;5093857;28;20080;-57
2021/01/25 12:13:39;;;;;;;14.23;3.55;;;256.00;1177.60;;;;;;5078908;28;20028;-59
2021/01/25 12:16:06;;;;;;;8.23;3.05;;;256.10;1177.60;;;;;;5101931;28;20024;-58
2021/01/25 12:18:32;;;;;;;4.20;2.38;;;231.30;1152.00;;;;;;5112986;28;20028;-58
2021/01/25 12:20:58;;;;;;;2.78;2.03;;;231.30;1126.40;;;;;;5113993;28;20020;-57
2021/01/25 12:23:24;;;;;;;8.30;5.18;;;256.00;1126.40;;;;;;5113406;28;20036;-58